Time;durP1;ratioP1;P1;durP2;ratioP2;P2;SDS_P1;SDS_P2;PMS_P1;PMS_P2;Temp;Humidity;BMP_temperature;BMP_pressure;BME280_temperature;BME280_humidity;BME280_pressure;Samples;Min_cycle;Max_cycle;Signal;HPM_P1;HPM_P2
2023/03/15 00:00:11;;;;;;;1.17;0.40;;;5.00;99.90;;;;;;4895375;29;20086;-84
2023/03/15 00:02:38;;;;;;;0.80;0.40;;;5.00;99.90;;;;;;4893941;29;20181;-85
2023/03/15 00:05:06;;;;;;;1.35;0.57;;;4.90;99.90;;;;;;4909015;29;20412;-85
2023/03/15 00:07:33;;;;;;;0.75;0.40;;;4.90;99.90;;;;;;4910062;29;20074;-84
2023/03/15 00:09:59;;;;;;;0.63;0.40;;;4.80;99.90;;;;;;4910816;29;20043;-84
2023/03/15 00:12:26;;;;;;;0.77;0.50;;;4.70;99.90;;;;;;4911136;29;20298;-84
2023/03/15 00:14:53;;;;;;;0.80;0.40;;;4.70;99.90;;;;;;4894417;29;20078;-84
2023/03/15 00:17:21;;;;;;;0.40;0.40;;;4.60;99.90;;;;;;4895136;29;20392;-85
2023/03/15 00:19:48;;;;;;;0.47;0.43;;;4.60;99.90;;;;;;4910600;29;20055;-83
2023/03/15 00:22:15;;;;;;;1.08;0.50;;;4.60;99.90;;;;;;4910342;29;20079;-85
2023/03/15 00:24:42;;;;;;;0.65;0.40;;;4.60;99.90;;;;;;4894593;29;20113;-84
2023/03/15 00:27:09;;;;;;;0.40;0.30;;;4.60;99.90;;;;;;4926206;29;20254;-84
2023/03/15 00:29:36;;;;;;;1.48;0.40;;;4.60;99.90;;;;;;4926416;29;20054;-84
2023/03/15 00:32:03;;;;;;;1.02;0.50;;;4.60;99.90;;;;;;4914326;29;20074;-84
2023/03/15 00:34:32;;;;;;;0.52;0.47;;;4.60;99.90;;;;;;4909848;29;20117;-84
2023/03/15 00:36:59;;;;;;;0.82;0.40;;;4.70;99.90;;;;;;4892757;29;20110;-85
2023/03/15 00:39:26;;;;;;;0.50;0.50;;;4.60;99.90;;;;;;4910074;29;20067;-84
2023/03/15 00:41:55;;;;;;;0.90;0.50;;;4.70;99.90;;;;;;4910377;29;20066;-84
2023/03/15 00:44:23;;;;;;;1.17;0.30;;;4.70;99.90;;;;;;4918100;29;20106;-85
2023/03/15 00:46:50;;;;;;;0.82;0.40;;;4.60;99.90;;;;;;4910235;28;20055;-84
2023/03/15 00:49:17;;;;;;;0.90;0.50;;;4.60;99.90;;;;;;4909662;29;20055;-84
2023/03/15 00:51:44;;;;;;;1.55;0.90;;;4.50;99.90;;;;;;4909178;29;20133;-85
2023/03/15 00:54:12;;;;;;;1.05;0.50;;;4.50;99.90;;;;;;4902639;29;20051;-85
2023/03/15 00:56:40;;;;;;;0.93;0.52;;;4.40;99.90;;;;;;4910386;29;20411;-84
2023/03/15 00:59:07;;;;;;;1.58;0.82;;;4.40;99.90;;;;;;4910894;29;20055;-85
2023/03/15 01:01:34;;;;;;;0.85;0.32;;;4.30;99.90;;;;;;4916946;29;20063;-85
2023/03/15 01:04:01;;;;;;;0.73;0.50;;;4.20;99.90;;;;;;4894876;29;20051;-86
2023/03/15 01:06:28;;;;;;;0.65;0.50;;;4.20;99.90;;;;;;4925379;29;20043;-85
2023/03/15 01:08:55;;;;;;;0.88;0.43;;;4.10;99.90;;;;;;4929475;29;20470;-85
2023/03/15 01:11:24;;;;;;;0.77;0.45;;;4.10;99.90;;;;;;4929901;29;20379;-85
2023/03/15 01:13:52;;;;;;;1.27;0.47;;;4.00;99.90;;;;;;4913226;29;20059;-86
2023/03/15 01:16:19;;;;;;;0.50;0.30;;;4.00;99.90;;;;;;4913932;29;20154;-85
2023/03/15 01:18:46;;;;;;;0.57;0.50;;;3.90;99.90;;;;;;4912941;29;20055;-85
2023/03/15 01:21:13;;;;;;;0.73;0.40;;;3.90;99.90;;;;;;4912321;29;20222;-84
2023/03/15 01:23:41;;;;;;;0.60;0.30;;;3.90;99.90;;;;;;4896999;29;20047;-84
2023/03/15 01:26:10;;;;;;;0.32;0.30;;;3.80;99.90;;;;;;4897229;29;20086;-84
2023/03/15 01:28:37;;;;;;;0.90;0.40;;;3.80;99.90;;;;;;4897367;29;20141;-85
2023/03/15 01:31:04;;;;;;;0.93;0.40;;;3.70;99.90;;;;;;4910097;29;20155;-84
2023/03/15 01:33:31;;;;;;;0.80;0.40;;;3.70;99.90;;;;;;4893528;29;20138;-85
2023/03/15 01:35:59;;;;;;;1.20;0.50;;;3.60;99.90;;;;;;4927598;28;20061;-84
2023/03/15 01:38:27;;;;;;;0.55;0.38;;;3.60;99.90;;;;;;4927990;29;20477;-83
2023/03/15 01:40:54;;;;;;;0.52;0.40;;;3.60;99.90;;;;;;4928921;29;20142;-84
2023/03/15 01:43:22;;;;;;;0.32;0.32;;;3.50;99.90;;;;;;4913390;29;20538;-84
2023/03/15 01:45:55;;;;;;;0.40;0.40;;;3.50;99.90;;;;;;4912845;29;20087;-84
2023/03/15 01:48:28;;;;;;;0.45;0.40;;;3.50;99.90;;;;;;4928504;29;20138;-84
2023/03/15 01:50:55;;;;;;;0.52;0.30;;;3.40;99.90;;;;;;4912751;29;20051;-85
2023/03/15 01:53:22;;;;;;;0.52;0.30;;;3.40;99.90;;;;;;4911543;29;20084;-84
2023/03/15 01:55:51;;;;;;;0.47;0.30;;;3.40;99.90;;;;;;4912699;29;20604;-84
2023/03/15 01:58:20;;;;;;;0.68;0.50;;;3.40;99.90;;;;;;4913865;28;20129;-84
2023/03/15 02:00:47;;;;;;;0.60;0.43;;;3.40;99.90;;;;;;4915939;29;20110;-85
2023/03/15 02:03:17;;;;;;;0.65;0.40;;;3.30;99.90;;;;;;4915386;29;20118;-84
2023/03/15 02:05:46;;;;;;;2.33;1.00;;;3.30;99.90;;;;;;4916067;29;20468;-85
2023/03/15 02:08:16;;;;;;;1.23;0.50;;;3.30;99.90;;;;;;4931959;29;20102;-85
2023/03/15 02:10:44;;;;;;;0.45;0.40;;;3.30;99.90;;;;;;4932530;29;20059;-85
2023/03/15 02:13:12;;;;;;;1.17;0.55;;;3.30;99.90;;;;;;4918536;29;20074;-85
2023/03/15 02:15:45;;;;;;;0.65;0.55;;;3.30;99.90;;;;;;4917073;29;20153;-86
2023/03/15 02:18:12;;;;;;;1.63;0.70;;;3.20;99.90;;;;;;4917355;29;20066;-85
2023/03/15 02:21:00;;;;;;;0.68;0.47;;;3.20;99.90;;;;;;4900309;29;20153;-85
2023/03/15 02:23:27;;;;;;;1.00;0.60;;;3.10;99.90;;;;;;4933152;28;20145;-85
2023/03/15 02:26:18;;;;;;;1.02;0.40;;;3.20;99.90;;;;;;4915514;29;20055;-85
2023/03/15 02:28:45;;;;;;;1.45;0.40;;;3.20;99.90;;;;;;4932197;29;20069;-85
2023/03/15 02:31:13;;;;;;;1.25;0.50;;;3.10;99.90;;;;;;4576497;29;10000040;-85
2023/03/15 02:33:40;;;;;;;0.47;0.45;;;3.10;99.90;;;;;;4913227;29;20066;-84
2023/03/15 02:36:14;;;;;;;0.68;0.50;;;3.10;99.90;;;;;;4933138;29;20055;-85
2023/03/15 02:38:41;;;;;;;0.75;0.52;;;3.10;99.90;;;;;;4918423;29;20169;-84
2023/03/15 02:41:08;;;;;;;0.38;0.38;;;3.00;99.90;;;;;;4921005;29;20114;-83
2023/03/15 02:43:35;;;;;;;1.60;0.70;;;3.00;99.90;;;;;;4936588;29;20456;-84
2023/03/15 02:46:02;;;;;;;0.50;0.40;;;2.90;99.90;;;;;;4931396;29;20082;-84
2023/03/15 02:48:30;;;;;;;1.88;0.40;;;2.90;99.90;;;;;;4592713;29;10000549;-84
2023/03/15 02:50:57;;;;;;;0.70;0.60;;;2.90;99.90;;;;;;4934212;29;20439;-84
2023/03/15 02:53:24;;;;;;;0.52;0.40;;;2.90;99.90;;;;;;4937663;29;20395;-83
2023/03/15 02:55:51;;;;;;;0.57;0.40;;;2.80;99.90;;;;;;4934461;29;20051;-84
2023/03/15 02:58:18;;;;;;;0.95;0.70;;;2.80;99.90;;;;;;4933816;29;20141;-84
2023/03/15 03:00:45;;;;;;;0.60;0.60;;;2.80;99.90;;;;;;4918026;29;20052;-83
2023/03/15 03:03:12;;;;;;;1.55;0.63;;;2.80;99.90;;;;;;4917701;29;20081;-83
2023/03/15 03:05:39;;;;;;;0.63;0.40;;;2.80;99.90;;;;;;4914581;29;20055;-83
2023/03/15 03:08:06;;;;;;;0.20;0.20;;;2.80;99.90;;;;;;4930165;29;20063;-83
2023/03/15 03:10:33;;;;;;;1.00;0.63;;;2.80;99.90;;;;;;4930541;29;20139;-84
2023/03/15 03:13:00;;;;;;;0.40;0.40;;;2.70;99.90;;;;;;4927947;29;20055;-83
2023/03/15 03:15:27;;;;;;;0.80;0.60;;;2.70;99.90;;;;;;4915687;29;20114;-84
2023/03/15 03:17:54;;;;;;;0.47;0.30;;;2.70;99.90;;;;;;4916070;29;20051;-84
2023/03/15 03:20:21;;;;;;;0.65;0.45;;;2.70;99.90;;;;;;4915840;29;20131;-83
2023/03/15 03:22:47;;;;;;;1.08;0.45;;;2.60;99.90;;;;;;4920011;29;20049;-84
2023/03/15 03:25:14;;;;;;;0.63;0.40;;;2.60;99.90;;;;;;4918749;29;20565;-84
2023/03/15 03:27:42;;;;;;;0.47;0.40;;;2.60;99.90;;;;;;4921673;29;20051;-84
2023/03/15 03:30:11;;;;;;;0.75;0.40;;;2.60;99.90;;;;;;4918880;29;20079;-82
2023/03/15 03:32:39;;;;;;;0.47;0.40;;;2.60;99.90;;;;;;4918961;29;20138;-84
2023/03/15 03:35:07;;;;;;;0.73;0.40;;;2.60;99.90;;;;;;4918254;29;20090;-83
2023/03/15 03:37:34;;;;;;;0.50;0.50;;;2.60;99.90;;;;;;4917617;29;20055;-84
2023/03/15 03:40:06;;;;;;;1.30;0.50;;;2.60;99.90;;;;;;4917504;29;20055;-85
2023/03/15 03:42:34;;;;;;;0.60;0.50;;;2.50;99.90;;;;;;4918357;29;20051;-83
2023/03/15 03:45:01;;;;;;;0.93;0.47;;;2.50;99.90;;;;;;4918088;29;20529;-83
2023/03/15 03:47:28;;;;;;;0.80;0.40;;;2.50;99.90;;;;;;4917818;29;20109;-83
2023/03/15 03:49:55;;;;;;;0.75;0.50;;;2.50;99.90;;;;;;4918018;29;20074;-84
2023/03/15 03:52:22;;;;;;;1.10;0.63;;;2.40;99.90;;;;;;4917525;29;20063;-83
2023/03/15 03:54:49;;;;;;;1.05;0.80;;;2.40;99.90;;;;;;4901761;29;20043;-82
2023/03/15 03:57:16;;;;;;;1.05;0.57;;;2.30;99.90;;;;;;4933136;29;20498;-83
2023/03/15 03:59:44;;;;;;;0.68;0.52;;;2.30;99.90;;;;;;4932986;29;20120;-83
2023/03/15 04:02:11;;;;;;;0.77;0.63;;;2.30;99.90;;;;;;4917828;29;20101;-84
2023/03/15 04:04:40;;;;;;;0.77;0.60;;;2.20;99.90;;;;;;4901839;29;20055;-83
2023/03/15 04:07:07;;;;;;;1.15;0.90;;;2.10;99.90;;;;;;4917251;29;20156;-84
2023/03/15 04:09:37;;;;;;;0.43;0.40;;;2.10;99.90;;;;;;4917398;29;20118;-83
2023/03/15 04:12:04;;;;;;;0.88;0.60;;;2.10;99.90;;;;;;4918489;29;20126;-83
2023/03/15 04:14:31;;;;;;;0.50;0.40;;;2.10;99.90;;;;;;4918033;29;20106;-83
2023/03/15 04:16:58;;;;;;;0.98;0.77;;;2.10;99.90;;;;;;4901502;29;20118;-82
2023/03/15 04:19:25;;;;;;;0.43;0.43;;;2.10;99.90;;;;;;4933876;29;20047;-83
2023/03/15 04:21:52;;;;;;;0.40;0.40;;;2.00;99.90;;;;;;4932615;29;20142;-83
2023/03/15 04:24:19;;;;;;;1.50;0.68;;;1.90;99.90;;;;;;4919691;29;20047;-84
2023/03/15 04:26:46;;;;;;;2.53;1.13;;;1.90;99.90;;;;;;4917503;29;20096;-83
2023/03/15 04:29:14;;;;;;;0.75;0.63;;;1.90;99.90;;;;;;4917705;29;20062;-83
2023/03/15 04:31:42;;;;;;;1.95;1.05;;;1.90;99.90;;;;;;4917234;29;20478;-82
2023/03/15 04:34:09;;;;;;;2.13;0.70;;;1.80;99.90;;;;;;4933229;29;20502;-83
2023/03/15 04:36:35;;;;;;;1.75;1.23;;;1.80;99.90;;;;;;4914613;28;20074;-82
2023/03/15 04:39:06;;;;;;;0.82;0.57;;;1.70;99.90;;;;;;4948523;29;20078;-83
2023/03/15 04:41:38;;;;;;;1.27;0.73;;;1.80;99.90;;;;;;4949465;28;20055;-86
2023/03/15 04:44:05;;;;;;;1.52;0.65;;;1.80;99.90;;;;;;4923082;29;20055;-83
2023/03/15 04:46:32;;;;;;;0.68;0.60;;;1.80;99.90;;;;;;4914106;29;20119;-83
2023/03/15 04:49:00;;;;;;;2.13;0.60;;;1.80;99.90;;;;;;4929731;29;20691;-83
2023/03/15 04:51:27;;;;;;;1.60;0.77;;;1.70;99.90;;;;;;4929107;29;20078;-83
2023/03/15 04:53:54;;;;;;;1.40;0.80;;;1.70;99.90;;;;;;4919548;29;20083;-83
2023/03/15 04:56:21;;;;;;;1.35;0.50;;;1.70;99.90;;;;;;4914037;29;20221;-84
2023/03/15 04:58:48;;;;;;;1.13;0.77;;;1.70;99.90;;;;;;4913722;29;20079;-83
2023/03/15 05:01:15;;;;;;;0.90;0.75;;;1.70;99.90;;;;;;4932431;29;20059;-82
2023/03/15 05:03:42;;;;;;;1.35;0.63;;;1.60;99.90;;;;;;4916645;29;20065;-82
2023/03/15 05:06:09;;;;;;;1.05;0.70;;;1.60;99.90;;;;;;4912786;29;20123;-82
2023/03/15 05:08:36;;;;;;;1.35;1.13;;;1.60;99.90;;;;;;4927885;29;20055;-83
2023/03/15 05:11:03;;;;;;;0.93;0.73;;;1.50;99.90;;;;;;4929209;29;20048;-83
2023/03/15 05:13:30;;;;;;;1.35;0.80;;;1.50;99.90;;;;;;4929119;29;20056;-83
2023/03/15 05:15:57;;;;;;;1.02;0.73;;;1.60;99.90;;;;;;4929535;29;20044;-83
2023/03/15 05:18:24;;;;;;;1.63;0.88;;;1.50;99.90;;;;;;4929355;29;20071;-83
2023/03/15 05:20:54;;;;;;;1.35;0.90;;;1.60;99.90;;;;;;4929254;29;20082;-83
2023/03/15 05:23:22;;;;;;;1.42;0.90;;;1.50;99.90;;;;;;4931939;29;20055;-82
2023/03/15 05:25:52;;;;;;;1.20;0.85;;;1.50;99.90;;;;;;4917337;29;20143;-84
2023/03/15 05:28:23;;;;;;;1.23;0.85;;;1.40;99.90;;;;;;4916725;29;20055;-84
2023/03/15 05:30:53;;;;;;;0.95;0.85;;;1.40;99.90;;;;;;4916438;29;20407;-83
2023/03/15 05:33:20;;;;;;;1.23;0.82;;;1.30;99.90;;;;;;4916477;28;20158;-82
2023/03/15 05:35:47;;;;;;;1.13;0.77;;;1.30;99.90;;;;;;4924616;29;20134;-84
2023/03/15 05:38:14;;;;;;;1.33;0.90;;;1.20;99.90;;;;;;4934901;29;20074;-82
2023/03/15 05:40:45;;;;;;;1.08;0.80;;;1.20;99.90;;;;;;4930616;29;20558;-83
2023/03/15 05:43:12;;;;;;;1.23;0.80;;;1.30;99.90;;;;;;4951304;28;20062;-83
2023/03/15 05:45:39;;;;;;;1.30;0.88;;;1.30;99.90;;;;;;4919509;29;20070;-82
2023/03/15 05:48:06;;;;;;;1.52;0.90;;;1.30;99.90;;;;;;4919125;29;20062;-82
2023/03/15 05:50:33;;;;;;;1.33;0.80;;;1.30;99.90;;;;;;4917739;29;20047;-83
2023/03/15 05:53:03;;;;;;;0.95;0.73;;;1.20;99.90;;;;;;4917363;29;20073;-83
2023/03/15 05:55:30;;;;;;;1.25;0.95;;;1.20;99.90;;;;;;4929680;29;20055;-87
2023/03/15 05:57:57;;;;;;;1.50;1.00;;;1.10;99.90;;;;;;4936349;29;20095;-85
2023/03/15 06:00:24;;;;;;;2.15;0.95;;;1.20;99.90;;;;;;4921836;29;20077;-84
2023/03/15 06:02:51;;;;;;;2.75;1.23;;;1.20;99.90;;;;;;4915205;29;20327;-83
2023/03/15 06:05:21;;;;;;;1.83;1.33;;;1.10;99.90;;;;;;4926819;29;20146;-85
2023/03/15 06:07:48;;;;;;;2.30;1.38;;;1.10;99.90;;;;;;4914262;29;20055;-84
2023/03/15 06:10:15;;;;;;;2.13;1.50;;;1.20;99.90;;;;;;4938339;29;20059;-83
2023/03/15 06:12:43;;;;;;;2.25;1.55;;;1.20;99.90;;;;;;4924603;29;20491;-83
2023/03/15 06:15:10;;;;;;;2.08;1.30;;;1.10;99.90;;;;;;4915207;29;20047;-85
2023/03/15 06:17:38;;;;;;;2.53;1.60;;;1.20;99.90;;;;;;4919249;29;20512;-84
2023/03/15 06:20:05;;;;;;;2.28;1.52;;;1.10;99.90;;;;;;4921685;29;20154;-84
2023/03/15 06:22:32;;;;;;;2.88;1.70;;;1.20;99.90;;;;;;4916519;29;20146;-86
2023/03/15 06:25:02;;;;;;;1.70;1.23;;;1.20;99.90;;;;;;4932643;29;20055;-87
2023/03/15 06:27:29;;;;;;;2.80;1.58;;;1.10;99.90;;;;;;4934290;29;20523;-88
2023/03/15 06:29:57;;;;;;;1.95;1.10;;;1.20;99.90;;;;;;4931775;29;20051;-88
2023/03/15 06:32:24;;;;;;;1.70;1.10;;;1.20;99.90;;;;;;4919234;29;20055;-87
2023/03/15 06:34:51;;;;;;;2.13;1.48;;;1.20;99.90;;;;;;4914901;29;20099;-90
2023/03/15 06:37:21;;;;;;;2.38;1.60;;;1.20;99.90;;;;;;4932152;29;20123;-89
2023/03/15 06:40:08;;;;;;;2.63;1.67;;;1.20;99.90;;;;;;4937563;29;20414;-88
2023/03/15 06:42:38;;;;;;;1.73;1.15;;;1.20;99.90;;;;;;4933954;28;20063;-90
2023/03/15 06:45:06;;;;;;;3.53;1.40;;;1.20;99.90;;;;;;4941758;28;20055;-89
2023/03/15 06:47:36;;;;;;;2.45;1.45;;;1.20;99.90;;;;;;4933021;29;20059;-87
2023/03/15 06:50:03;;;;;;;2.83;1.63;;;1.20;99.90;;;;;;4914413;29;20523;-82
2023/03/15 06:52:30;;;;;;;2.22;1.30;;;1.20;99.90;;;;;;4924732;29;20082;-81
2023/03/15 06:54:58;;;;;;;2.05;1.33;;;1.30;99.90;;;;;;4906470;28;20107;-83
2023/03/15 06:57:25;;;;;;;2.47;1.90;;;1.30;99.90;;;;;;4924166;29;20542;-83
2023/03/15 06:59:53;;;;;;;2.50;1.60;;;1.30;99.90;;;;;;4907552;29;20047;-83
2023/03/15 07:02:20;;;;;;;2.33;1.75;;;1.40;99.90;;;;;;4925070;29;20715;-83
2023/03/15 07:04:47;;;;;;;2.72;1.88;;;1.50;99.90;;;;;;4894111;29;20055;-84
2023/03/15 07:07:14;;;;;;;2.72;1.70;;;1.60;99.90;;;;;;4933286;28;20612;-84
2023/03/15 07:09:41;;;;;;;2.58;1.65;;;1.60;99.90;;;;;;4911891;29;20159;-84
2023/03/15 07:12:09;;;;;;;3.15;2.08;;;1.70;99.90;;;;;;4921820;29;20119;-83
2023/03/15 07:14:36;;;;;;;2.78;1.92;;;1.80;99.90;;;;;;4893204;29;20083;-85
2023/03/15 07:17:03;;;;;;;2.40;1.90;;;1.90;99.90;;;;;;4908204;29;20078;-84
2023/03/15 07:19:30;;;;;;;2.85;2.13;;;1.90;99.90;;;;;;4932381;29;20058;-84
2023/03/15 07:21:57;;;;;;;1.95;1.48;;;1.90;99.90;;;;;;4893879;29;20051;-85
2023/03/15 07:24:24;;;;;;;2.30;1.60;;;2.00;99.90;;;;;;4894095;29;20610;-85
2023/03/15 07:26:55;;;;;;;3.38;1.85;;;2.00;99.90;;;;;;4917393;29;20055;-86
2023/03/15 07:29:22;;;;;;;2.28;1.55;;;2.10;99.90;;;;;;4909570;29;20062;-86
2023/03/15 07:31:50;;;;;;;1.83;1.30;;;2.10;99.90;;;;;;4910194;29;20050;-77
2023/03/15 07:34:17;;;;;;;1.77;1.25;;;2.20;99.90;;;;;;4926742;29;20146;-86
2023/03/15 07:36:44;;;;;;;1.85;1.50;;;2.30;99.90;;;;;;4919896;28;20639;-83
2023/03/15 07:39:11;;;;;;;2.22;1.60;;;2.40;99.90;;;;;;4911431;29;20055;-88
2023/03/15 07:41:38;;;;;;;2.08;1.45;;;2.50;99.90;;;;;;4947635;29;20368;-86
2023/03/15 07:44:05;;;;;;;1.85;1.30;;;2.50;99.90;;;;;;4947053;29;20122;-87
2023/03/15 07:46:32;;;;;;;1.70;1.20;;;2.60;99.90;;;;;;4902727;29;20055;-86
2023/03/15 07:48:59;;;;;;;1.88;1.40;;;2.70;99.90;;;;;;4933594;29;20090;-85
2023/03/15 07:51:26;;;;;;;1.67;1.33;;;2.80;99.90;;;;;;4917529;29;20174;-87
2023/03/15 07:53:53;;;;;;;2.08;1.30;;;2.90;99.90;;;;;;4924091;29;20085;-87
2023/03/15 07:56:20;;;;;;;1.88;1.23;;;3.00;99.90;;;;;;4902610;28;20102;-88
2023/03/15 07:58:47;;;;;;;1.67;1.30;;;3.10;99.90;;;;;;4902157;29;20064;-86
2023/03/15 08:01:14;;;;;;;1.55;1.05;;;3.20;99.90;;;;;;4917587;29;20490;-88
2023/03/15 08:03:41;;;;;;;1.55;1.17;;;3.30;99.90;;;;;;4915455;29;20098;-87
2023/03/15 08:06:09;;;;;;;1.48;1.17;;;3.50;99.90;;;;;;4899180;29;20296;-87
2023/03/15 08:08:36;;;;;;;1.95;1.02;;;3.60;99.90;;;;;;4900104;29;20626;-89
2023/03/15 08:11:04;;;;;;;1.70;1.20;;;3.80;99.90;;;;;;4901111;29;20047;-88
2023/03/15 08:13:31;;;;;;;1.00;0.90;;;3.90;99.90;;;;;;4916593;29;20117;-87
2023/03/15 08:15:58;;;;;;;2.45;1.40;;;4.10;99.90;;;;;;4901933;29;20057;-84
2023/03/15 08:18:27;;;;;;;3.03;1.00;;;4.20;99.90;;;;;;4901116;29;20065;-87
2023/03/15 08:20:54;;;;;;;1.67;1.20;;;4.30;99.90;;;;;;4902339;29;20063;-87
2023/03/15 08:23:22;;;;;;;1.88;1.00;;;4.40;99.90;;;;;;4914272;29;20158;-87
2023/03/15 08:25:49;;;;;;;1.80;1.20;;;4.60;99.90;;;;;;4932579;29;20083;-87
2023/03/15 08:28:16;;;;;;;1.38;1.00;;;4.70;99.90;;;;;;4932104;29;20059;-86
2023/03/15 08:30:43;;;;;;;1.27;0.90;;;4.70;99.90;;;;;;4918689;29;20075;-87
2023/03/15 08:33:11;;;;;;;1.40;1.10;;;4.80;99.90;;;;;;4901459;29;20059;-86
2023/03/15 08:35:38;;;;;;;1.25;1.15;;;4.80;99.90;;;;;;4917649;29;20470;-87
2023/03/15 08:38:05;;;;;;;0.93;0.77;;;4.90;99.90;;;;;;4913653;29;20065;-86
2023/03/15 08:40:32;;;;;;;1.42;1.00;;;4.90;99.90;;;;;;4913524;29;20447;-86
2023/03/15 08:42:59;;;;;;;1.40;1.00;;;4.90;99.90;;;;;;4899580;29;20097;-86
2023/03/15 08:45:26;;;;;;;1.38;0.90;;;4.90;99.90;;;;;;4915525;29;20171;-86
2023/03/15 08:47:57;;;;;;;1.35;0.95;;;4.90;99.90;;;;;;4915645;29;20507;-87
2023/03/15 08:50:25;;;;;;;1.02;0.82;;;5.00;99.90;;;;;;4917401;29;20175;-86
2023/03/15 08:52:52;;;;;;;0.95;0.88;;;5.00;99.90;;;;;;4901219;29;20135;-86
2023/03/15 08:55:19;;;;;;;1.25;1.00;;;5.10;99.90;;;;;;4901549;29;20184;-86
2023/03/15 08:57:46;;;;;;;1.77;0.95;;;5.10;99.90;;;;;;4901514;29;20090;-85
2023/03/15 09:00:19;;;;;;;1.10;0.70;;;5.20;99.90;;;;;;4901580;29;20051;-87
2023/03/15 09:02:53;;;;;;;1.10;0.75;;;5.30;99.90;;;;;;4930985;28;20055;-86
2023/03/15 09:05:21;;;;;;;1.00;0.60;;;5.30;99.90;;;;;;4914331;29;20438;-86
2023/03/15 09:07:48;;;;;;;1.15;0.93;;;5.40;99.90;;;;;;4911347;28;20470;-83
2023/03/15 09:10:16;;;;;;;1.05;0.85;;;5.50;99.90;;;;;;4915226;29;20051;-86
2023/03/15 09:12:44;;;;;;;0.95;0.65;;;5.50;99.90;;;;;;4930482;29;20051;-86
2023/03/15 09:15:11;;;;;;;0.98;0.65;;;5.60;99.90;;;;;;4920017;29;20142;-84
2023/03/15 09:17:41;;;;;;;1.00;0.60;;;5.60;99.90;;;;;;4916926;29;20106;-85
2023/03/15 09:20:17;;;;;;;1.73;0.70;;;5.80;99.90;;;;;;4915514;29;20149;-85
2023/03/15 09:22:52;;;;;;;2.85;1.13;;;5.90;99.90;;;;;;4913363;29;20048;-86
2023/03/15 09:25:19;;;;;;;2.00;0.90;;;6.00;99.90;;;;;;4885178;29;20191;-85
2023/03/15 09:27:46;;;;;;;0.82;0.70;;;6.10;99.90;;;;;;4913744;29;20051;-83
2023/03/15 09:30:14;;;;;;;0.75;0.70;;;6.20;99.90;;;;;;4917810;29;20142;-83
2023/03/15 09:32:42;;;;;;;0.68;0.60;;;6.30;99.90;;;;;;4925409;29;20309;-86
2023/03/15 09:35:12;;;;;;;1.63;0.80;;;6.50;99.90;;;;;;4895156;29;20061;-86
2023/03/15 09:37:39;;;;;;;1.13;0.68;;;6.70;99.90;;;;;;4915185;29;20051;-80
2023/03/15 09:40:07;;;;;;;0.68;0.50;;;6.80;99.90;;;;;;4915003;29;20154;-88
2023/03/15 09:42:37;;;;;;;0.60;0.47;;;6.90;99.90;;;;;;4919360;29;20051;-89
2023/03/15 09:45:26;;;;;;;0.65;0.50;;;7.00;99.90;;;;;;4937208;29;20101;-89
2023/03/15 09:48:17;;;;;;;1.33;0.50;;;7.10;99.90;;;;;;4906137;29;20122;-86
2023/03/15 09:50:56;;;;;;;0.82;0.60;;;7.30;99.90;;;;;;4903181;29;20043;-87
2023/03/15 09:53:27;;;;;;;0.70;0.52;;;7.40;99.90;;;;;;4902068;29;20074;-85
2023/03/15 09:55:54;;;;;;;1.02;0.40;;;7.50;99.90;;;;;;4904455;29;20467;-85
2023/03/15 09:58:31;;;;;;;2.72;0.55;;;7.60;99.90;;;;;;4903850;29;20055;-84
2023/03/15 10:01:05;;;;;;;0.80;0.55;;;7.80;99.90;;;;;;4905607;29;20090;-84
2023/03/15 10:03:49;;;;;;;0.95;0.60;;;7.90;99.90;;;;;;4919337;29;20082;-85
2023/03/15 10:06:17;;;;;;;;;;;8.00;99.90;;;;;;4903854;29;20143;-86
2023/03/15 10:08:47;;;;;;;0.50;0.50;;;8.10;99.90;;;;;;4932645;29;19930;-86
2023/03/15 10:11:38;;;;;;;0.60;0.40;;;8.20;99.90;;;;;;4903708;29;20047;-86
2023/03/15 10:14:24;;;;;;;0.50;0.40;;;8.40;99.90;;;;;;4939012;29;20055;-84
2023/03/15 10:16:51;;;;;;;0.32;0.30;;;8.50;99.90;;;;;;4948366;29;20059;-85
2023/03/15 10:19:22;;;;;;;0.90;0.60;;;8.60;99.90;;;;;;4901394;28;20341;-86
2023/03/15 10:21:49;;;;;;;0.40;0.35;;;8.70;99.90;;;;;;4947167;29;20412;-85
2023/03/15 10:24:28;;;;;;;0.35;0.32;;;8.90;99.90;;;;;;4948111;29;20091;-86
2023/03/15 10:26:55;;;;;;;0.40;0.40;;;9.00;99.90;;;;;;4933794;29;20531;-85
2023/03/15 10:29:23;;;;;;;0.95;0.50;;;9.10;99.90;;;;;;4901646;29;20055;-85
2023/03/15 10:31:51;;;;;;;0.85;0.30;;;9.20;99.90;;;;;;4903871;29;20082;-86
2023/03/15 10:34:18;;;;;;;0.65;0.40;;;9.30;99.90;;;;;;4903709;29;20163;-86
2023/03/15 10:36:53;;;;;;;0.45;0.45;;;9.40;99.90;;;;;;4902096;28;20079;-86
2023/03/15 10:39:21;;;;;;;0.57;0.40;;;9.60;99.90;;;;;;4898539;29;20059;-85
2023/03/15 10:41:48;;;;;;;0.77;0.60;;;9.60;99.90;;;;;;4913659;29;20047;-85
2023/03/15 10:44:35;;;;;;;0.40;0.30;;;9.70;99.90;;;;;;4919516;29;20138;-85
2023/03/15 10:47:10;;;;;;;0.77;0.40;;;9.80;99.90;;;;;;4919588;29;20146;-86
2023/03/15 10:49:49;;;;;;;0.47;0.30;;;9.90;99.90;;;;;;4912346;29;20725;-85
2023/03/15 10:52:46;;;;;;;1.42;0.57;;;9.90;99.90;;;;;;4914077;29;20067;-86
2023/03/15 10:55:20;;;;;;;0.82;0.50;;;10.00;99.90;;;;;;4899902;29;20150;-87
2023/03/15 10:57:52;;;;;;;1.58;0.60;;;10.00;99.90;;;;;;4879979;29;20114;-87
2023/03/15 11:00:35;;;;;;;1.00;0.70;;;10.10;99.90;;;;;;4900101;29;20538;-86
2023/03/15 11:03:22;;;;;;;1.05;0.63;;;9.90;99.90;;;;;;4919505;29;20850;-87
2023/03/15 11:05:50;;;;;;;1.88;1.15;;;9.80;99.90;;;;;;4921962;29;20047;-85
2023/03/15 11:08:19;;;;;;;1.40;0.90;;;9.80;99.90;;;;;;4903299;29;20055;-87
2023/03/15 11:10:55;;;;;;;1.15;0.77;;;9.90;99.90;;;;;;4919588;29;20150;-86
2023/03/15 11:13:26;;;;;;;1.08;0.63;;;10.00;99.90;;;;;;4920291;29;20059;-87
2023/03/15 11:16:06;;;;;;;2.42;0.93;;;10.10;99.90;;;;;;4920028;29;20151;-87
2023/03/15 11:18:42;;;;;;;2.22;0.80;;;10.10;99.90;;;;;;4919851;29;20162;-87
2023/03/15 11:21:13;;;;;;;1.08;0.73;;;10.10;99.90;;;;;;4935613;29;20082;-87
2023/03/15 11:23:50;;;;;;;1.50;0.73;;;10.00;99.90;;;;;;4916873;29;20229;-87
2023/03/15 11:26:24;;;;;;;1.35;0.60;;;10.20;99.90;;;;;;4917519;29;20051;-87
2023/03/15 11:29:22;;;;;;;1.23;0.80;;;10.40;99.90;;;;;;4919401;29;20127;-87
2023/03/15 11:31:49;;;;;;;1.10;0.70;;;10.50;99.90;;;;;;4930191;29;20047;-87
2023/03/15 11:34:49;;;;;;;1.77;1.00;;;10.50;99.90;;;;;;4882780;29;20059;-87
2023/03/15 11:37:22;;;;;;;0.88;0.47;;;10.60;99.90;;;;;;4908339;29;20055;-88
2023/03/15 11:40:37;;;;;;;0.80;0.55;;;10.80;99.90;;;;;;4927791;29;20167;-87
2023/03/15 11:43:11;;;;;;;0.90;0.70;;;11.10;99.90;;;;;;4947130;28;20110;-88
2023/03/15 11:45:51;;;;;;;0.43;0.32;;;11.30;99.90;;;;;;4932837;29;20116;-87
2023/03/15 11:48:25;;;;;;;0.40;0.40;;;11.30;99.70;;;;;;4932872;29;20086;-87
2023/03/15 11:50:53;;;;;;;1.23;0.60;;;11.30;99.90;;;;;;4931714;29;20070;-86
2023/03/15 11:53:35;;;;;;;0.60;0.40;;;11.40;99.90;;;;;;5115956;27;20407;-86
2023/03/15 11:56:23;;;;;;;0.30;0.30;;;11.40;99.90;;;;;;5082056;28;20078;-88
2023/03/15 11:59:10;;;;;;;0.80;0.38;;;11.50;99.90;;;;;;5091432;28;20067;-88
2023/03/15 12:02:09;;;;;;;0.68;0.50;;;11.50;99.70;;;;;;5110838;27;20043;-87
2023/03/15 12:04:46;;;;;;;0.63;0.50;;;11.60;99.90;;;;;;5067520;28;20130;-86
2023/03/15 12:07:16;;;;;;;0.68;0.50;;;11.90;99.80;;;;;;5100348;28;20043;-86
2023/03/15 12:09:51;;;;;;;0.75;0.60;;;11.90;99.80;;;;;;5104306;28;20055;-86
2023/03/15 12:12:24;;;;;;;0.45;0.40;;;12.00;99.90;;;;;;5071195;28;20092;-88
2023/03/15 12:15:04;;;;;;;1.05;0.52;;;12.00;99.70;;;;;;5107868;28;20047;-87
2023/03/15 12:17:39;;;;;;;0.57;0.57;;;12.10;98.80;;;;;;5107156;28;20134;-87
2023/03/15 12:20:17;;;;;;;0.47;0.30;;;12.10;98.80;;;;;;5086481;28;20552;-86
2023/03/15 12:22:52;;;;;;;0.85;0.43;;;12.30;99.80;;;;;;5107499;28;20187;-86
2023/03/15 12:26:00;;;;;;;0.77;0.40;;;12.30;99.30;;;;;;5072489;28;20123;-86
2023/03/15 12:28:40;;;;;;;0.47;0.40;;;12.40;99.00;;;;;;5041241;28;20131;-87
2023/03/15 12:31:08;;;;;;;0.95;0.60;;;12.50;97.70;;;;;;5074472;28;20059;-86
2023/03/15 12:33:51;;;;;;;0.50;0.38;;;12.50;97.40;;;;;;5085450;28;20054;-87
2023/03/15 12:36:34;;;;;;;0.60;0.60;;;12.40;97.10;;;;;;5067557;28;20142;-87
2023/03/15 12:39:15;;;;;;;0.43;0.40;;;12.40;98.00;;;;;;5049013;28;20052;-86
2023/03/15 12:41:47;;;;;;;0.68;0.47;;;12.30;97.90;;;;;;5051774;28;20083;-86
2023/03/15 12:44:37;;;;;;;0.65;0.40;;;12.20;98.40;;;;;;5068774;28;20071;-87
2023/03/15 12:47:05;;;;;;;0.65;0.40;;;12.20;98.90;;;;;;5070317;28;20051;-87
2023/03/15 12:49:43;;;;;;;0.30;0.30;;;12.30;98.70;;;;;;5053456;28;20128;-88
2023/03/15 12:52:10;;;;;;;0.57;0.40;;;12.40;98.50;;;;;;5053164;28;20051;-87
2023/03/15 12:54:52;;;;;;;1.17;0.60;;;12.40;99.00;;;;;;5086665;28;20142;-87
2023/03/15 12:57:26;;;;;;;0.70;0.43;;;12.40;98.50;;;;;;5070443;28;20047;-88
2023/03/15 13:00:00;;;;;;;0.45;0.30;;;12.30;98.30;;;;;;5070800;28;20052;-87
2023/03/15 13:02:37;;;;;;;1.52;0.60;;;12.30;98.30;;;;;;5069289;28;20167;-87
2023/03/15 13:05:35;;;;;;;2.38;0.60;;;12.20;98.20;;;;;;5041743;28;20070;-86
2023/03/15 13:08:30;;;;;;;0.88;0.50;;;11.90;97.70;;;;;;5041451;28;20060;-86
2023/03/15 13:11:22;;;;;;;0.63;0.50;;;11.80;98.10;;;;;;5041197;28;20122;-86